MSC Lirica — HOPW — position and weather

sailwx.info

Track history (hours):
 
Tides and Currents Weather Stations Pressure Air Temp Water Temp Dewpoint Dewpoint Depression Visibility Wind Speed Wind Dir Waves Ship Positions

MSC Lirica

Operator: Mediterranean Shipping Company

Last reported at 2019-Oct-15 12:24 UTC. Time now 2019-Oct-17 01:21 UTC.
Position N 35°34' E 024°14'.

Length 275 m; draft 6.8 m.

Type: Passenger vessel. MMSI: 356042000.

Date/timePositionNaut miles runAvg speedWind from/ knotsBaromVisibWave heightAir tempDewpointWater temp
2019-Oct-15 12:24N 35°34' E 024°14'8 1.0
2019-Oct-15 03:29N 35°29' E 024°05'8 7.8
2019-Oct-15 02:27N 35°31' E 024°14'6 7.2
2019-Oct-15 01:36N 35°35' E 024°20'1 7.2
2019-Oct-15 01:30N 35°36' E 024°20'4 7.4
2019-Oct-15 01:00N 35°38' E 024°23'6 8.2
2019-Oct-15 00:16N 35°43' E 024°29'2 9.1
2019-Oct-15 00:00N 35°45' E 024°30'  
2019-Oct-11 22:40N 44°03' E 013°30'317.5
2019-Oct-11 22:30N 44°05' E 013°27'1717.2
2019-Oct-11 21:31N 44°17' E 013°11'017.2
2019-Oct-11 21:30N 44°17' E 013°11'917.7
2019-Oct-11 21:00N 44°25' E 013°06'917.8
2019-Oct-11 20:30N 44°34' E 013°02'917.6
2019-Oct-11 20:00N 44°42' E 012°58'917.2
2019-Oct-11 19:30N 44°50' E 012°54'917.3
2019-Oct-11 19:01N 44°58' E 012°48'917.2
2019-Oct-11 18:31N 45°05' E 012°43'816.8
2019-Oct-11 18:00N 45°10' E 012°33'816.3
2019-Oct-11 17:30N 45°18' E 012°30'714.1
2019-Oct-11 17:00N 45°25' E 012°27'3 6.5
2019-Oct-11 16:30N 45°25' E 012°22'2 4.7
2019-Oct-11 16:00N 45°26' E 012°19'0 0.9
2019-Oct-11 15:30N 45°26' E 012°19'0 0.0
2019-Oct-11 15:00N 45°26' E 012°19'0 0.0
2019-Oct-11 14:30N 45°26' E 012°19'0 0.0
2019-Oct-11 14:00N 45°26' E 012°19'0 0.0
2019-Oct-11 13:30N 45°26' E 012°19'0 0.0
2019-Oct-11 13:00N 45°26' E 012°19'0 0.0
2019-Oct-11 12:30N 45°26' E 012°19'0 0.0
2019-Oct-11 12:00N 45°26' E 012°19'0 0.0
2019-Oct-11 11:30N 45°26' E 012°19'0 0.0
2019-Oct-11 11:00N 45°26' E 012°19'0 0.0
2019-Oct-11 10:30N 45°26' E 012°19'0 0.0
2019-Oct-11 10:00N 45°26' E 012°19'0 0.0
2019-Oct-11 09:30N 45°26' E 012°19'0 0.0
2019-Oct-11 09:00N 45°26' E 012°19'0 0.0
2019-Oct-11 08:30N 45°26' E 012°19'0 0.0
2019-Oct-11 08:00N 45°26' E 012°19'0 0.8
2019-Oct-11 07:30N 45°26' E 012°19'2 4.6
2019-Oct-11 07:01N 45°25' E 012°22'3 6.4
2019-Oct-11 06:31N 45°25' E 012°27'5 9.3
2019-Oct-11 06:01N 45°22' E 012°32'5 9.3
2019-Oct-11 05:30N 45°17' E 012°32'510.1
2019-Oct-11 05:00N 45°14' E 012°38'713.9
2019-Oct-11 04:30N 45°10' E 012°46'815.9
2019-Oct-11 04:00N 45°06' E 012°55'816.6
2019-Oct-11 03:30N 45°02' E 013°06'816.5
2019-Oct-11 03:00N 44°58' E 013°16'816.9
2019-Oct-11 02:30N 44°53' E 013°26'917.3
2019-Oct-11 02:00N 44°46' E 013°32'917.5
2019-Oct-11 01:30N 44°38' E 013°38'917.6
2019-Oct-11 01:00N 44°31' E 013°45'917.3
2019-Oct-11 00:30N 44°23' E 013°52'1117.1
2019-Oct-10 23:52N 44°15' E 014°01'  
2019-Oct-08 16:34N 36°06' E 022°53'117.6
2019-Oct-08 16:30N 36°05' E 022°54'816.9
2019-Oct-08 16:00N 36°03' E 023°04'816.9
2019-Oct-08 15:30N 36°02' E 023°15'  
Track history (hours):
 
Tides and Currents Weather Stations Pressure Air Temp Water Temp Dewpoint Dewpoint Depression Visibility Wind Speed Wind Dir Waves Ship Positions

MSC Lirica

Operator: Mediterranean Shipping Company

Last reported at 2019-Oct-15 12:24 UTC. Time now 2019-Oct-17 01:21 UTC.
Position N 35°34' E 024°14'.

Length 275 m; draft 6.8 m.

Type: Passenger vessel. MMSI: 356042000.

Date/timePositionNaut miles runAvg speedWind from/ knotsBaromVisibWave heightAir tempDewpointWater temp
2019-Oct-15 12:24N 35°34' E 024°14'8 1.0
2019-Oct-15 03:29N 35°29' E 024°05'8 7.8
2019-Oct-15 02:27N 35°31' E 024°14'6 7.2
2019-Oct-15 01:36N 35°35' E 024°20'1 7.2
2019-Oct-15 01:30N 35°36' E 024°20'4 7.4
2019-Oct-15 01:00N 35°38' E 024°23'6 8.2
2019-Oct-15 00:16N 35°43' E 024°29'2 9.1
2019-Oct-15 00:00N 35°45' E 024°30'  
2019-Oct-11 22:40N 44°03' E 013°30'317.5
2019-Oct-11 22:30N 44°05' E 013°27'1717.2
2019-Oct-11 21:31N 44°17' E 013°11'017.2
2019-Oct-11 21:30N 44°17' E 013°11'917.7
2019-Oct-11 21:00N 44°25' E 013°06'917.8
2019-Oct-11 20:30N 44°34' E 013°02'917.6
2019-Oct-11 20:00N 44°42' E 012°58'917.2
2019-Oct-11 19:30N 44°50' E 012°54'917.3
2019-Oct-11 19:01N 44°58' E 012°48'917.2
2019-Oct-11 18:31N 45°05' E 012°43'816.8
2019-Oct-11 18:00N 45°10' E 012°33'816.3
2019-Oct-11 17:30N 45°18' E 012°30'714.1
2019-Oct-11 17:00N 45°25' E 012°27'3 6.5
2019-Oct-11 16:30N 45°25' E 012°22'2 4.7
2019-Oct-11 16:00N 45°26' E 012°19'0 0.9
2019-Oct-11 15:30N 45°26' E 012°19'0 0.0
2019-Oct-11 15:00N 45°26' E 012°19'0 0.0
2019-Oct-11 14:30N 45°26' E 012°19'0 0.0
2019-Oct-11 14:00N 45°26' E 012°19'0 0.0
2019-Oct-11 13:30N 45°26' E 012°19'0 0.0
2019-Oct-11 13:00N 45°26' E 012°19'0 0.0
2019-Oct-11 12:30N 45°26' E 012°19'0 0.0
2019-Oct-11 12:00N 45°26' E 012°19'0 0.0
2019-Oct-11 11:30N 45°26' E 012°19'0 0.0
2019-Oct-11 11:00N 45°26' E 012°19'0 0.0
2019-Oct-11 10:30N 45°26' E 012°19'0 0.0
2019-Oct-11 10:00N 45°26' E 012°19'0 0.0
2019-Oct-11 09:30N 45°26' E 012°19'0 0.0
2019-Oct-11 09:00N 45°26' E 012°19'0 0.0
2019-Oct-11 08:30N 45°26' E 012°19'0 0.0
2019-Oct-11 08:00N 45°26' E 012°19'0 0.8
2019-Oct-11 07:30N 45°26' E 012°19'2 4.6
2019-Oct-11 07:01N 45°25' E 012°22'3 6.4
2019-Oct-11 06:31N 45°25' E 012°27'5 9.3
2019-Oct-11 06:01N 45°22' E 012°32'5 9.3
2019-Oct-11 05:30N 45°17' E 012°32'510.1
2019-Oct-11 05:00N 45°14' E 012°38'713.9
2019-Oct-11 04:30N 45°10' E 012°46'815.9
2019-Oct-11 04:00N 45°06' E 012°55'816.6
2019-Oct-11 03:30N 45°02' E 013°06'816.5
2019-Oct-11 03:00N 44°58' E 013°16'816.9
2019-Oct-11 02:30N 44°53' E 013°26'917.3
2019-Oct-11 02:00N 44°46' E 013°32'917.5
2019-Oct-11 01:30N 44°38' E 013°38'917.6
2019-Oct-11 01:00N 44°31' E 013°45'917.3
2019-Oct-11 00:30N 44°23' E 013°52'1117.1
2019-Oct-10 23:52N 44°15' E 014°01'  
2019-Oct-08 16:34N 36°06' E 022°53'117.6
2019-Oct-08 16:30N 36°05' E 022°54'816.9
2019-Oct-08 16:00N 36°03' E 023°04'816.9
2019-Oct-08 15:30N 36°02' E 023°15'  

Dump ship's entire track history